PWSweather.com
Personal Weather Stations
Station Observations
DW1039
Liberty & Fairfield Townships, Hamilton, OH 45011

Liberty & Fairfield TownshipsHamilton, OH 45011

Lat: 39.3933, Lon: -84.477

Elevation: 780

Station Type: Davis Vantage Pro2 (Daytime Fan Aspirated)

http://www.lfweathercenter.com/

High Low Average
Temperature 77.4°F25.2°C 64.8°F18.2°C 69.5°F20.8°C
Dew Point 70.2°F21.2°C 60.5°F15.8°C 64.5°F18.1°C
Winds 6.0 mph 9.7 kmh Calm Calm 1.0 mph SE1.6 kmh SE
Wind Gusts 9.0 mph14.5 kmh -- 2.0 mph3.2 kmh
Humidity 86% 75% 84%
Pressure 29.95 in1014.2 mb 29.88 in1011.9 mb -
Precipitation 0.00 in0.0 mm - -
Hour Temp Dew Point Humidity Winds Wind Gusts Pressure Precip Precip Rate Daily Precip Total
12:00 AM 69.0°F20.6°C 64.3°F17.9°C 85% Calm Calm 2.0 mph3.2 kmh 29.92 in1013.2 mb 0.00 in0.0 mm 0.00 in0.0 mm 0.00 in0.0 mm
12:10 AM 68.8°F20.4°C 64.1°F17.8°C 85% Calm Calm -- 29.92 in1013.2 mb 0.00 in0.0 mm 0.00 in0.0 mm 0.00 in0.0 mm
12:20 AM 68.6°F20.3°C 64.3°F17.9°C 86% Calm Calm 1.0 mph1.6 kmh 29.93 in1013.5 mb 0.00 in0.0 mm 0.00 in0.0 mm 0.00 in0.0 mm
12:30 AM 68.5°F20.3°C 64.2°F17.9°C 86% Calm Calm -- 29.93 in1013.5 mb 0.00 in0.0 mm 0.00 in0.0 mm 0.00 in0.0 mm
12:40 AM 68.3°F20.2°C 63.6°F17.6°C 85% Calm Calm 2.0 mph3.2 kmh 29.92 in1013.2 mb 0.00 in0.0 mm 0.00 in0.0 mm 0.00 in0.0 mm
12:50 AM 68.2°F20.1°C 63.5°F17.5°C 85% Calm Calm 1.0 mph1.6 kmh 29.92 in1013.2 mb 0.00 in0.0 mm 0.00 in0.0 mm 0.00 in0.0 mm
01:00 AM 68.2°F20.1°C 63.9°F17.7°C 86% Calm Calm 1.0 mph1.6 kmh 29.93 in1013.5 mb 0.00 in0.0 mm 0.00 in0.0 mm 0.00 in0.0 mm
01:10 AM 68.2°F20.1°C 63.9°F17.7°C 86% Calm Calm 2.0 mph3.2 kmh 29.93 in1013.5 mb 0.00 in0.0 mm 0.00 in0.0 mm 0.00 in0.0 mm
01:20 AM 68.3°F20.2°C 64.0°F17.8°C 86% Calm Calm 1.0 mph1.6 kmh 29.92 in1013.2 mb 0.00 in0.0 mm 0.00 in0.0 mm 0.00 in0.0 mm
01:30 AM 68.1°F20.1°C 63.8°F17.7°C 86% Calm Calm 1.0 mph1.6 kmh 29.92 in1013.2 mb 0.00 in0.0 mm 0.00 in0.0 mm 0.00 in0.0 mm
01:40 AM 68.0°F20.0°C 63.7°F17.6°C 86% 1.0 mph N1.6 kmh N 3.0 mph4.8 kmh 29.91 in1012.9 mb 0.00 in0.0 mm 0.00 in0.0 mm 0.00 in0.0 mm
01:50 AM 68.0°F20.0°C 63.7°F17.6°C 86% 1.0 mph NNE1.6 kmh NNE 3.0 mph4.8 kmh 29.92 in1013.2 mb 0.00 in0.0 mm 0.00 in0.0 mm 0.00 in0.0 mm
02:00 AM 68.0°F20.0°C 63.7°F17.6°C 86% 2.0 mph N3.2 kmh N 3.0 mph4.8 kmh 29.91 in1012.9 mb 0.02 in0.5 mm 0.02 in0.5 mm 0.02 in0.5 mm
02:10 AM 67.7°F19.8°C 63.4°F17.4°C 86% 2.0 mph NE3.2 kmh NE 4.0 mph6.4 kmh 29.90 in1012.5 mb 0.12 in3.0 mm 0.60 in15.2 mm 0.12 in3.0 mm
02:20 AM 67.3°F19.6°C 63.0°F17.2°C 86% 1.0 mph N1.6 kmh N 4.0 mph6.4 kmh 29.89 in1012.2 mb 0.13 in3.3 mm 0.06 in1.5 mm 0.13 in3.3 mm
02:30 AM 66.8°F19.3°C 62.5°F16.9°C 86% 1.0 mph NE1.6 kmh NE 3.0 mph4.8 kmh 29.89 in1012.2 mb 0.13 in3.3 mm 0.00 in0.0 mm 0.13 in3.3 mm
02:40 AM 66.4°F19.1°C 62.1°F16.7°C 86% Calm Calm 4.0 mph6.4 kmh 29.89 in1012.2 mb 0.13 in3.3 mm 0.00 in0.0 mm 0.13 in3.3 mm
02:50 AM 66.2°F19.0°C 61.9°F16.6°C 86% Calm Calm 4.0 mph6.4 kmh 29.90 in1012.5 mb 0.13 in3.3 mm 0.00 in0.0 mm 0.13 in3.3 mm
03:00 AM 66.1°F18.9°C 61.8°F16.6°C 86% Calm Calm 4.0 mph6.4 kmh 29.90 in1012.5 mb 0.12 in3.0 mm 0.00 in0.0 mm 0.13 in3.3 mm
03:10 AM 66.1°F18.9°C 61.8°F16.6°C 86% Calm Calm 3.0 mph4.8 kmh 29.90 in1012.5 mb 0.01 in0.3 mm 0.00 in0.0 mm 0.13 in3.3 mm
03:20 AM 66.1°F18.9°C 61.8°F16.6°C 86% 2.0 mph NE3.2 kmh NE 3.0 mph4.8 kmh 29.90 in1012.5 mb 0.00 in0.0 mm 0.00 in0.0 mm 0.13 in3.3 mm
03:30 AM 65.9°F18.8°C 61.6°F16.4°C 86% 2.0 mph NNE3.2 kmh NNE 3.0 mph4.8 kmh 29.89 in1012.2 mb 0.00 in0.0 mm 0.00 in0.0 mm 0.13 in3.3 mm
03:40 AM 65.7°F18.7°C 61.4°F16.3°C 86% Calm Calm 3.0 mph4.8 kmh 29.89 in1012.2 mb 0.00 in0.0 mm 0.00 in0.0 mm 0.13 in3.3 mm
03:50 AM 65.6°F18.7°C 61.3°F16.3°C 86% Calm Calm 3.0 mph4.8 kmh 29.89 in1012.2 mb 0.00 in0.0 mm 0.00 in0.0 mm 0.13 in3.3 mm
04:00 AM 65.6°F18.7°C 61.3°F16.3°C 86% Calm Calm 3.0 mph4.8 kmh 29.89 in1012.2 mb 0.00 in0.0 mm 0.00 in0.0 mm 0.13 in3.3 mm
04:10 AM 65.6°F18.7°C 61.3°F16.3°C 86% 1.0 mph NNE1.6 kmh NNE 3.0 mph4.8 kmh 29.90 in1012.5 mb 0.00 in0.0 mm 0.00 in0.0 mm 0.13 in3.3 mm
04:20 AM 65.6°F18.7°C 61.3°F16.3°C 86% Calm Calm 2.0 mph3.2 kmh 29.90 in1012.5 mb 0.00 in0.0 mm 0.00 in0.0 mm 0.13 in3.3 mm
04:30 AM 65.6°F18.7°C 61.3°F16.3°C 86% Calm Calm -- 29.90 in1012.5 mb 0.00 in0.0 mm 0.00 in0.0 mm 0.13 in3.3 mm
04:40 AM 65.5°F18.6°C 61.2°F16.2°C 86% Calm Calm 1.0 mph1.6 kmh 29.91 in1012.9 mb 0.00 in0.0 mm 0.00 in0.0 mm 0.13 in3.3 mm
04:50 AM 65.6°F18.7°C 61.3°F16.3°C 86% Calm Calm 2.0 mph3.2 kmh 29.91 in1012.9 mb 0.00 in0.0 mm 0.00 in0.0 mm 0.13 in3.3 mm
05:00 AM 65.6°F18.7°C 61.3°F16.3°C 86% 1.0 mph N1.6 kmh N 2.0 mph3.2 kmh 29.92 in1013.2 mb 0.01 in0.3 mm 0.01 in0.3 mm 0.14 in3.6 mm
05:10 AM 65.2°F18.4°C 60.9°F16.1°C 86% Calm Calm 4.0 mph6.4 kmh 29.91 in1012.9 mb 0.09 in2.3 mm 0.48 in12.2 mm 0.22 in5.6 mm
05:20 AM 64.9°F18.3°C 60.6°F15.9°C 86% Calm Calm 1.0 mph1.6 kmh 29.91 in1012.9 mb 0.10 in2.5 mm 0.06 in1.5 mm 0.23 in5.8 mm
05:30 AM 64.9°F18.3°C 60.6°F15.9°C 86% Calm Calm 2.0 mph3.2 kmh 29.90 in1012.5 mb 0.12 in3.0 mm 0.12 in3.0 mm 0.25 in6.4 mm
05:40 AM 64.9°F18.3°C 60.6°F15.9°C 86% 1.0 mph NE1.6 kmh NE 2.0 mph3.2 kmh 29.89 in1012.2 mb 0.14 in3.6 mm 0.12 in3.0 mm 0.27 in6.9 mm
05:50 AM 64.8°F18.2°C 60.5°F15.8°C 86% Calm Calm 1.0 mph1.6 kmh 29.90 in1012.5 mb 0.14 in3.6 mm 0.00 in0.0 mm 0.27 in6.9 mm
06:00 AM 64.8°F18.2°C 60.5°F15.8°C 86% Calm Calm 1.0 mph1.6 kmh 29.90 in1012.5 mb 0.13 in3.3 mm 0.00 in0.0 mm 0.27 in6.9 mm
06:10 AM 64.9°F18.3°C 60.6°F15.9°C 86% Calm Calm 1.0 mph1.6 kmh 29.91 in1012.9 mb 0.05 in1.3 mm 0.00 in0.0 mm 0.27 in6.9 mm
06:20 AM 64.9°F18.3°C 60.6°F15.9°C 86% Calm Calm 2.0 mph3.2 kmh 29.91 in1012.9 mb 0.04 in1.0 mm 0.00 in0.0 mm 0.27 in6.9 mm
06:30 AM 65.0°F18.3°C 60.7°F15.9°C 86% Calm Calm -- 29.91 in1012.9 mb 0.02 in0.5 mm 0.00 in0.0 mm 0.27 in6.9 mm
06:40 AM 65.1°F18.4°C 60.5°F15.8°C 85% Calm Calm -- 29.92 in1013.2 mb 0.00 in0.0 mm 0.00 in0.0 mm 0.27 in6.9 mm
06:50 AM 65.4°F18.6°C 60.8°F16.0°C 85% Calm Calm -- 29.92 in1013.2 mb 0.00 in0.0 mm 0.00 in0.0 mm 0.27 in6.9 mm
07:00 AM 65.6°F18.7°C 61.0°F16.1°C 85% Calm Calm -- 29.92 in1013.2 mb 0.00 in0.0 mm 0.00 in0.0 mm 0.27 in6.9 mm
07:10 AM 66.0°F18.9°C 61.4°F16.3°C 85% Calm Calm -- 29.92 in1013.2 mb 0.00 in0.0 mm 0.00 in0.0 mm 0.27 in6.9 mm
07:20 AM 66.1°F18.9°C 61.5°F16.4°C 85% Calm Calm 1.0 mph1.6 kmh 29.92 in1013.2 mb 0.00 in0.0 mm 0.00 in0.0 mm 0.27 in6.9 mm
07:30 AM 66.3°F19.1°C 61.7°F16.5°C 85% Calm Calm 1.0 mph1.6 kmh 29.92 in1013.2 mb 0.00 in0.0 mm 0.00 in0.0 mm 0.27 in6.9 mm
07:40 AM 66.6°F19.2°C 62.0°F16.7°C 85% Calm Calm -- 29.92 in1013.2 mb 0.00 in0.0 mm 0.00 in0.0 mm 0.27 in6.9 mm
07:50 AM 67.4°F19.7°C 62.7°F17.1°C 85% Calm Calm -- 29.93 in1013.5 mb 0.00 in0.0 mm 0.00 in0.0 mm 0.27 in6.9 mm
08:00 AM 67.6°F19.8°C 62.9°F17.2°C 85% Calm Calm 3.0 mph4.8 kmh 29.93 in1013.5 mb 0.00 in0.0 mm 0.00 in0.0 mm 0.27 in6.9 mm
08:10 AM 67.7°F19.8°C 63.0°F17.2°C 85% 2.0 mph NNE3.2 kmh NNE 3.0 mph4.8 kmh 29.93 in1013.5 mb 0.00 in0.0 mm 0.00 in0.0 mm 0.27 in6.9 mm
08:20 AM 68.1°F20.1°C 63.4°F17.4°C 85% Calm Calm 1.0 mph1.6 kmh 29.93 in1013.5 mb 0.00 in0.0 mm 0.00 in0.0 mm 0.27 in6.9 mm
08:30 AM 68.1°F20.1°C 63.4°F17.4°C 85% Calm Calm 3.0 mph4.8 kmh 29.93 in1013.5 mb 0.00 in0.0 mm 0.00 in0.0 mm 0.27 in6.9 mm
08:40 AM 68.0°F20.0°C 63.3°F17.4°C 85% Calm Calm 4.0 mph6.4 kmh 29.93 in1013.5 mb 0.00 in0.0 mm 0.00 in0.0 mm 0.27 in6.9 mm
08:50 AM 68.5°F20.3°C 63.8°F17.7°C 85% 1.0 mph N1.6 kmh N 2.0 mph3.2 kmh 29.93 in1013.5 mb 0.00 in0.0 mm 0.00 in0.0 mm 0.27 in6.9 mm
09:00 AM 68.3°F20.2°C 63.6°F17.6°C 85% Calm Calm 3.0 mph4.8 kmh 29.93 in1013.5 mb 0.00 in0.0 mm 0.00 in0.0 mm 0.27 in6.9 mm
09:10 AM 68.8°F20.4°C 64.1°F17.8°C 85% Calm Calm 2.0 mph3.2 kmh 29.93 in1013.5 mb 0.00 in0.0 mm 0.00 in0.0 mm 0.27 in6.9 mm
09:20 AM 68.9°F20.5°C 64.2°F17.9°C 85% 1.0 mph NE1.6 kmh NE 4.0 mph6.4 kmh 29.93 in1013.5 mb 0.00 in0.0 mm 0.00 in0.0 mm 0.27 in6.9 mm
09:30 AM 69.5°F20.8°C 65.1°F18.4°C 86% Calm Calm 4.0 mph6.4 kmh 29.94 in1013.9 mb 0.00 in0.0 mm 0.00 in0.0 mm 0.27 in6.9 mm
09:40 AM 69.9°F21.1°C 65.5°F18.6°C 86% 1.0 mph E1.6 kmh E 2.0 mph3.2 kmh 29.94 in1013.9 mb 0.00 in0.0 mm 0.00 in0.0 mm 0.27 in6.9 mm
09:50 AM 70.0°F21.1°C 65.6°F18.7°C 86% 2.0 mph N3.2 kmh N 2.0 mph3.2 kmh 29.94 in1013.9 mb 0.00 in0.0 mm 0.00 in0.0 mm 0.27 in6.9 mm
10:00 AM 69.7°F20.9°C 65.3°F18.5°C 86% 2.0 mph NE3.2 kmh NE 5.0 mph8.0 kmh 29.94 in1013.9 mb 0.00 in0.0 mm 0.00 in0.0 mm 0.27 in6.9 mm
10:10 AM 69.6°F20.9°C 65.2°F18.4°C 86% 4.0 mph NW6.4 kmh NW 9.0 mph14.5 kmh 29.94 in1013.9 mb 0.00 in0.0 mm 0.00 in0.0 mm 0.27 in6.9 mm
10:20 AM 68.7°F20.4°C 64.4°F18.0°C 86% 4.0 mph N6.4 kmh N 6.0 mph9.7 kmh 29.94 in1013.9 mb 0.00 in0.0 mm 0.00 in0.0 mm 0.27 in6.9 mm
10:30 AM 68.8°F20.4°C 64.5°F18.1°C 86% 4.0 mph NE6.4 kmh NE 6.0 mph9.7 kmh 29.94 in1013.9 mb 0.00 in0.0 mm 0.00 in0.0 mm 0.27 in6.9 mm
10:40 AM 69.7°F20.9°C 65.3°F18.5°C 86% 1.0 mph NE1.6 kmh NE 6.0 mph9.7 kmh 29.94 in1013.9 mb 0.00 in0.0 mm 0.00 in0.0 mm 0.27 in6.9 mm
10:50 AM 70.6°F21.4°C 65.9°F18.8°C 85% 6.0 mph NNE9.7 kmh NNE 9.0 mph14.5 kmh 29.94 in1013.9 mb 0.00 in0.0 mm 0.00 in0.0 mm 0.27 in6.9 mm
11:00 AM 70.6°F21.4°C 65.9°F18.8°C 85% 3.0 mph E4.8 kmh E 9.0 mph14.5 kmh 29.95 in1014.2 mb 0.00 in0.0 mm 0.00 in0.0 mm 0.27 in6.9 mm
11:10 AM 71.0°F21.7°C 66.3°F19.1°C 85% 1.0 mph NNE1.6 kmh NNE 7.0 mph11.3 kmh 29.95 in1014.2 mb 0.00 in0.0 mm 0.00 in0.0 mm 0.27 in6.9 mm
11:20 AM 71.2°F21.8°C 66.1°F18.9°C 84% 2.0 mph NE3.2 kmh NE 4.0 mph6.4 kmh 29.95 in1014.2 mb 0.00 in0.0 mm 0.00 in0.0 mm 0.27 in6.9 mm
11:30 AM 71.9°F22.2°C 66.8°F19.3°C 84% Calm Calm 4.0 mph6.4 kmh 29.95 in1014.2 mb 0.00 in0.0 mm 0.00 in0.0 mm 0.27 in6.9 mm
11:40 AM 73.2°F22.9°C 68.1°F20.1°C 84% 2.0 mph NW3.2 kmh NW 4.0 mph6.4 kmh 29.94 in1013.9 mb 0.00 in0.0 mm 0.00 in0.0 mm 0.27 in6.9 mm
11:50 AM 74.6°F23.7°C 69.1°F20.6°C 83% Calm Calm 5.0 mph8.0 kmh 29.94 in1013.9 mb 0.00 in0.0 mm 0.00 in0.0 mm 0.27 in6.9 mm
12:00 PM 74.8°F23.8°C 68.6°F20.3°C 81% 3.0 mph NE4.8 kmh NE 5.0 mph8.0 kmh 29.94 in1013.9 mb 0.00 in0.0 mm 0.00 in0.0 mm 0.27 in6.9 mm
12:10 PM 75.2°F24.0°C 68.6°F20.3°C 80% 4.0 mph NW6.4 kmh NW 6.0 mph9.7 kmh 29.94 in1013.9 mb 0.00 in0.0 mm 0.00 in0.0 mm 0.27 in6.9 mm
12:20 PM 74.8°F23.8°C 68.2°F20.1°C 80% 2.0 mph N3.2 kmh N 3.0 mph4.8 kmh 29.93 in1013.5 mb 0.00 in0.0 mm 0.00 in0.0 mm 0.27 in6.9 mm
12:30 PM 75.0°F23.9°C 68.8°F20.4°C 81% 2.0 mph NE3.2 kmh NE 4.0 mph6.4 kmh 29.93 in1013.5 mb 0.00 in0.0 mm 0.00 in0.0 mm 0.27 in6.9 mm
12:40 PM 76.1°F24.5°C 69.5°F20.8°C 80% 3.0 mph E4.8 kmh E 6.0 mph9.7 kmh 29.92 in1013.2 mb 0.00 in0.0 mm 0.00 in0.0 mm 0.27 in6.9 mm
12:50 PM 76.8°F24.9°C 70.2°F21.2°C 80% Calm Calm 5.0 mph8.0 kmh 29.92 in1013.2 mb 0.00 in0.0 mm 0.00 in0.0 mm 0.27 in6.9 mm
01:00 PM 76.9°F24.9°C 69.2°F20.7°C 77% 1.0 mph NE1.6 kmh NE 3.0 mph4.8 kmh 29.92 in1013.2 mb 0.00 in0.0 mm 0.00 in0.0 mm 0.27 in6.9 mm
01:10 PM 76.8°F24.9°C 69.1°F20.6°C 77% 3.0 mph NNE4.8 kmh NNE 5.0 mph8.0 kmh 29.91 in1012.9 mb 0.00 in0.0 mm 0.00 in0.0 mm 0.27 in6.9 mm
01:20 PM 77.2°F25.1°C 69.4°F20.8°C 77% Calm Calm 5.0 mph8.0 kmh 29.91 in1012.9 mb 0.00 in0.0 mm 0.00 in0.0 mm 0.27 in6.9 mm
01:30 PM 77.4°F25.2°C 68.9°F20.5°C 75% 3.0 mph E4.8 kmh E 5.0 mph8.0 kmh 29.91 in1012.9 mb 0.00 in0.0 mm 0.00 in0.0 mm 0.27 in6.9 mm
01:40 PM 77.4°F25.2°C 68.9°F20.5°C 75% 3.0 mph NW4.8 kmh NW 6.0 mph9.7 kmh 29.90 in1012.5 mb 0.00 in0.0 mm 0.00 in0.0 mm 0.27 in6.9 mm
01:50 PM 77.4°F25.2°C 69.3°F20.7°C 76% 1.0 mph NE1.6 kmh NE 2.0 mph3.2 kmh 29.90 in1012.5 mb 0.00 in0.0 mm 0.00 in0.0 mm 0.27 in6.9 mm
02:00 PM 76.8°F24.9°C 68.3°F20.2°C 75% Calm Calm 5.0 mph8.0 kmh 29.90 in1012.5 mb 0.00 in0.0 mm 0.00 in0.0 mm 0.27 in6.9 mm
02:10 PM 76.6°F24.8°C 68.1°F20.1°C 75% 3.0 mph ENE4.8 kmh ENE 6.0 mph9.7 kmh 29.90 in1012.5 mb 0.00 in0.0 mm 0.00 in0.0 mm 0.27 in6.9 mm
02:20 PM 76.5°F24.7°C 68.4°F20.2°C 76% 2.0 mph NE3.2 kmh NE 4.0 mph6.4 kmh 29.90 in1012.5 mb 0.00 in0.0 mm 0.00 in0.0 mm 0.27 in6.9 mm
02:30 PM 76.0°F24.4°C 67.9°F19.9°C 76% 1.0 mph NW1.6 kmh NW 2.0 mph3.2 kmh 29.91 in1012.9 mb 0.00 in0.0 mm 0.00 in0.0 mm 0.27 in6.9 mm
02:40 PM 75.5°F24.2°C 67.8°F19.9°C 77% 1.0 mph E1.6 kmh E 3.0 mph4.8 kmh 29.90 in1012.5 mb 0.00 in0.0 mm 0.00 in0.0 mm 0.27 in6.9 mm
02:50 PM 75.5°F24.2°C 67.8°F19.9°C 77% Calm Calm 1.0 mph1.6 kmh 29.90 in1012.5 mb 0.00 in0.0 mm 0.00 in0.0 mm 0.27 in6.9 mm
03:00 PM 75.1°F23.9°C 67.4°F19.7°C 77% 1.0 mph ENE1.6 kmh ENE 4.0 mph6.4 kmh 29.89 in1012.2 mb 0.00 in0.0 mm 0.00 in0.0 mm 0.27 in6.9 mm
03:10 PM 74.4°F23.6°C 66.7°F19.3°C 77% Calm Calm 4.0 mph6.4 kmh 29.90 in1012.5 mb 0.00 in0.0 mm 0.00 in0.0 mm 0.27 in6.9 mm
03:20 PM 73.8°F23.2°C 66.5°F19.2°C 78% Calm Calm 2.0 mph3.2 kmh 29.90 in1012.5 mb 0.00 in0.0 mm 0.00 in0.0 mm 0.27 in6.9 mm
03:30 PM 73.1°F22.8°C 65.8°F18.8°C 78% Calm Calm 1.0 mph1.6 kmh 29.90 in1012.5 mb 0.00 in0.0 mm 0.00 in0.0 mm 0.27 in6.9 mm
03:40 PM 72.9°F22.7°C 66.0°F18.9°C 79% Calm Calm -- 29.90 in1012.5 mb 0.00 in0.0 mm 0.00 in0.0 mm 0.27 in6.9 mm
03:50 PM 72.5°F22.5°C 66.0°F18.9°C 80% Calm Calm -- 29.89 in1012.2 mb 0.00 in0.0 mm 0.00 in0.0 mm 0.27 in6.9 mm
04:00 PM 72.0°F22.2°C 66.2°F19.0°C 82% Calm Calm -- 29.89 in1012.2 mb 0.00 in0.0 mm 0.00 in0.0 mm 0.27 in6.9 mm
04:10 PM 71.5°F21.9°C 66.1°F18.9°C 83% Calm Calm -- 29.90 in1012.5 mb 0.00 in0.0 mm 0.00 in0.0 mm 0.27 in6.9 mm
04:20 PM 71.2°F21.8°C 65.8°F18.8°C 83% Calm Calm -- 29.90 in1012.5 mb 0.00 in0.0 mm 0.00 in0.0 mm 0.27 in6.9 mm
04:30 PM 70.9°F21.6°C 65.8°F18.8°C 84% Calm Calm -- 29.90 in1012.5 mb 0.01 in0.3 mm 0.06 in1.5 mm 0.28 in7.1 mm
04:40 PM 70.8°F21.6°C 66.1°F18.9°C 85% Calm Calm -- 29.90 in1012.5 mb 0.02 in0.5 mm 0.06 in1.5 mm 0.29 in7.4 mm
04:50 PM 70.6°F21.4°C 65.9°F18.8°C 85% Calm Calm -- 29.90 in1012.5 mb 0.03 in0.8 mm 0.06 in1.5 mm 0.30 in7.6 mm
05:00 PM 70.4°F21.3°C 65.7°F18.7°C 85% Calm Calm -- 29.89 in1012.2 mb 0.05 in1.3 mm 0.02 in0.5 mm 0.32 in8.1 mm
05:10 PM 70.3°F21.3°C 65.6°F18.7°C 85% Calm Calm -- 29.88 in1011.9 mb 0.05 in1.3 mm 0.00 in0.0 mm 0.32 in8.1 mm
05:20 PM 70.3°F21.3°C 65.6°F18.7°C 85% Calm Calm 1.0 mph1.6 kmh 29.88 in1011.9 mb 0.05 in1.3 mm 0.00 in0.0 mm 0.32 in8.1 mm
05:30 PM 70.4°F21.3°C 65.7°F18.7°C 85% Calm Calm -- 29.89 in1012.2 mb 0.04 in1.0 mm 0.00 in0.0 mm 0.32 in8.1 mm
05:40 PM 70.3°F21.3°C 65.6°F18.7°C 85% Calm Calm 2.0 mph3.2 kmh 29.89 in1012.2 mb 0.03 in0.8 mm 0.00 in0.0 mm 0.32 in8.1 mm
05:50 PM 70.4°F21.3°C 65.7°F18.7°C 85% Calm Calm 3.0 mph4.8 kmh 29.88 in1011.9 mb 0.02 in0.5 mm 0.00 in0.0 mm 0.32 in8.1 mm
06:00 PM 70.7°F21.5°C 66.0°F18.9°C 85% 1.0 mph NE1.6 kmh NE 1.0 mph1.6 kmh 29.88 in1011.9 mb 0.00 in0.0 mm 0.00 in0.0 mm 0.32 in8.1 mm
06:10 PM 70.6°F21.4°C 65.9°F18.8°C 85% Calm Calm -- 29.88 in1011.9 mb 0.00 in0.0 mm 0.00 in0.0 mm 0.32 in8.1 mm
06:20 PM 70.6°F21.4°C 65.9°F18.8°C 85% Calm Calm 2.0 mph3.2 kmh 29.89 in1012.2 mb 0.00 in0.0 mm 0.00 in0.0 mm 0.32 in8.1 mm
06:30 PM 71.0°F21.7°C 66.6°F19.2°C 86% Calm Calm 2.0 mph3.2 kmh 29.89 in1012.2 mb 0.00 in0.0 mm 0.00 in0.0 mm 0.32 in8.1 mm
06:40 PM 70.9°F21.6°C 66.5°F19.2°C 86% 3.0 mph NE4.8 kmh NE 3.0 mph4.8 kmh 29.89 in1012.2 mb 0.00 in0.0 mm 0.00 in0.0 mm 0.32 in8.1 mm
06:50 PM 70.8°F21.6°C 66.1°F18.9°C 85% Calm Calm 3.0 mph4.8 kmh 29.90 in1012.5 mb 0.00 in0.0 mm 0.00 in0.0 mm 0.32 in8.1 mm
07:00 PM 70.8°F21.6°C 66.1°F18.9°C 85% Calm Calm 2.0 mph3.2 kmh 29.90 in1012.5 mb 0.00 in0.0 mm 0.00 in0.0 mm 0.32 in8.1 mm
07:10 PM 70.6°F21.4°C 65.9°F18.8°C 85% Calm Calm 3.0 mph4.8 kmh 29.90 in1012.5 mb 0.00 in0.0 mm 0.00 in0.0 mm 0.32 in8.1 mm
07:20 PM 70.4°F21.3°C 65.7°F18.7°C 85% Calm Calm 2.0 mph3.2 kmh 29.91 in1012.9 mb 0.00 in0.0 mm 0.00 in0.0 mm 0.32 in8.1 mm
07:30 PM 70.2°F21.2°C 65.5°F18.6°C 85% Calm Calm -- 29.91 in1012.9 mb 0.00 in0.0 mm 0.00 in0.0 mm 0.32 in8.1 mm
07:40 PM 69.9°F21.1°C 65.2°F18.4°C 85% Calm Calm 1.0 mph1.6 kmh 29.91 in1012.9 mb 0.00 in0.0 mm 0.00 in0.0 mm 0.32 in8.1 mm
07:50 PM 69.6°F20.9°C 64.9°F18.3°C 85% Calm Calm 2.0 mph3.2 kmh 29.91 in1012.9 mb 0.00 in0.0 mm 0.00 in0.0 mm 0.32 in8.1 mm
08:00 PM 69.3°F20.7°C 64.9°F18.3°C 86% Calm Calm 2.0 mph3.2 kmh 29.91 in1012.9 mb 0.00 in0.0 mm 0.00 in0.0 mm 0.32 in8.1 mm
08:10 PM 69.1°F20.6°C 64.7°F18.2°C 86% Calm Calm -- 29.91 in1012.9 mb 0.00 in0.0 mm 0.00 in0.0 mm 0.32 in8.1 mm
08:20 PM 69.0°F20.6°C 64.6°F18.1°C 86% Calm Calm 1.0 mph1.6 kmh 29.91 in1012.9 mb 0.00 in0.0 mm 0.00 in0.0 mm 0.32 in8.1 mm
08:30 PM 68.8°F20.4°C 64.5°F18.1°C 86% Calm Calm 1.0 mph1.6 kmh 29.91 in1012.9 mb 0.00 in0.0 mm 0.00 in0.0 mm 0.32 in8.1 mm
08:40 PM 68.6°F20.3°C 64.3°F17.9°C 86% Calm Calm 2.0 mph3.2 kmh 29.91 in1012.9 mb 0.00 in0.0 mm 0.00 in0.0 mm 0.32 in8.1 mm
08:50 PM 68.5°F20.3°C 64.2°F17.9°C 86% Calm Calm -- 29.92 in1013.2 mb 0.00 in0.0 mm 0.00 in0.0 mm 0.32 in8.1 mm
09:00 PM 68.5°F20.3°C 64.2°F17.9°C 86% Calm Calm 2.0 mph3.2 kmh 29.92 in1013.2 mb 0.00 in0.0 mm 0.00 in0.0 mm 0.32 in8.1 mm
09:10 PM 68.4°F20.2°C 64.1°F17.8°C 86% Calm Calm 2.0 mph3.2 kmh 29.92 in1013.2 mb 0.00 in0.0 mm 0.00 in0.0 mm 0.32 in8.1 mm
09:20 PM 68.3°F20.2°C 64.0°F17.8°C 86% Calm Calm 3.0 mph4.8 kmh 29.92 in1013.2 mb 0.00 in0.0 mm 0.00 in0.0 mm 0.32 in8.1 mm
09:30 PM 68.2°F20.1°C 63.9°F17.7°C 86% Calm Calm 2.0 mph3.2 kmh 29.92 in1013.2 mb 0.00 in0.0 mm 0.00 in0.0 mm 0.32 in8.1 mm
09:40 PM 68.1°F20.1°C 63.8°F17.7°C 86% 1.0 mph N1.6 kmh N 2.0 mph3.2 kmh 29.93 in1013.5 mb 0.00 in0.0 mm 0.00 in0.0 mm 0.32 in8.1 mm
09:50 PM 68.0°F20.0°C 63.7°F17.6°C 86% Calm Calm 1.0 mph1.6 kmh 29.93 in1013.5 mb 0.00 in0.0 mm 0.00 in0.0 mm 0.32 in8.1 mm
10:00 PM 67.9°F19.9°C 63.6°F17.6°C 86% Calm Calm 3.0 mph4.8 kmh 29.93 in1013.5 mb 0.00 in0.0 mm 0.00 in0.0 mm 0.32 in8.1 mm
10:10 PM 67.9°F19.9°C 63.6°F17.6°C 86% Calm Calm -- 29.93 in1013.5 mb 0.00 in0.0 mm 0.00 in0.0 mm 0.32 in8.1 mm
10:20 PM 67.8°F19.9°C 63.5°F17.5°C 86% Calm Calm 1.0 mph1.6 kmh 29.93 in1013.5 mb 0.00 in0.0 mm 0.00 in0.0 mm 0.32 in8.1 mm
10:30 PM 67.8°F19.9°C 63.5°F17.5°C 86% 1.0 mph NNW1.6 kmh NNW 2.0 mph3.2 kmh 29.93 in1013.5 mb 0.00 in0.0 mm 0.00 in0.0 mm 0.32 in8.1 mm
10:40 PM 67.7°F19.8°C 63.4°F17.4°C 86% Calm Calm 2.0 mph3.2 kmh 29.92 in1013.2 mb 0.00 in0.0 mm 0.00 in0.0 mm 0.32 in8.1 mm
10:50 PM 67.7°F19.8°C 63.4°F17.4°C 86% Calm Calm 1.0 mph1.6 kmh 29.92 in1013.2 mb 0.00 in0.0 mm 0.00 in0.0 mm 0.32 in8.1 mm
11:00 PM 67.7°F19.8°C 63.4°F17.4°C 86% Calm Calm 1.0 mph1.6 kmh 29.93 in1013.5 mb 0.00 in0.0 mm 0.00 in0.0 mm 0.32 in8.1 mm
11:10 PM 67.7°F19.8°C 63.4°F17.4°C 86% 2.0 mph NW3.2 kmh NW 2.0 mph3.2 kmh 29.93 in1013.5 mb 0.00 in0.0 mm 0.00 in0.0 mm 0.32 in8.1 mm
11:20 PM 67.6°F19.8°C 63.3°F17.4°C 86% Calm Calm 2.0 mph3.2 kmh 29.93 in1013.5 mb 0.00 in0.0 mm 0.00 in0.0 mm 0.32 in8.1 mm
11:30 PM 67.5°F19.7°C 63.2°F17.3°C 86% Calm Calm 2.0 mph3.2 kmh 29.93 in1013.5 mb 0.00 in0.0 mm 0.00 in0.0 mm 0.32 in8.1 mm
11:40 PM 67.4°F19.7°C 63.1°F17.3°C 86% Calm Calm 2.0 mph3.2 kmh 29.92 in1013.2 mb 0.00 in0.0 mm 0.00 in0.0 mm 0.32 in8.1 mm
11:50 PM 67.4°F19.7°C 63.1°F17.3°C 86% Calm Calm 2.0 mph3.2 kmh 29.93 in1013.5 mb 0.00 in0.0 mm 0.00 in0.0 mm 0.32 in8.1 mm